createdAt,value
2018-08-19T00:00:31.173Z,4.00
2018-08-19T00:01:31.148Z,4.00
2018-08-19T00:02:31.132Z,4.00
2018-08-19T00:03:31.116Z,4.00
2018-08-19T00:04:31.100Z,4.00
2018-08-19T00:05:31.083Z,4.00
2018-08-19T00:06:31.068Z,4.00
2018-08-19T00:07:31.051Z,4.00
2018-08-19T00:08:31.036Z,4.00
2018-08-19T00:09:31.018Z,4.00
2018-08-19T00:10:31.003Z,4.00
2018-08-19T00:11:31.741Z,4.00
2018-08-19T00:12:30.969Z,4.00
2018-08-19T00:13:30.953Z,4.00
2018-08-19T00:14:30.938Z,4.00
2018-08-19T00:15:30.924Z,4.00
2018-08-19T00:16:30.904Z,4.00
2018-08-19T00:17:30.887Z,4.00
2018-08-19T00:18:30.871Z,4.00
2018-08-19T00:19:30.856Z,4.00
2018-08-19T00:20:30.839Z,4.00
2018-08-19T00:21:30.823Z,4.00
2018-08-19T00:22:30.806Z,4.00
2018-08-19T00:23:30.790Z,4.00
2018-08-19T00:24:30.773Z,4.00
2018-08-19T00:25:30.756Z,4.00
2018-08-19T00:26:30.740Z,4.00
2018-08-19T00:27:30.724Z,4.00
2018-08-19T00:28:30.705Z,4.00
2018-08-19T00:29:30.690Z,4.00
2018-08-19T00:30:30.673Z,4.00
2018-08-19T00:31:30.657Z,4.00
2018-08-19T00:32:30.640Z,4.00
2018-08-19T00:33:30.624Z,4.00
2018-08-19T00:34:30.606Z,4.00
2018-08-19T00:35:30.590Z,4.00
2018-08-19T00:36:30.572Z,4.00
2018-08-19T00:37:31.308Z,4.00
2018-08-19T00:38:30.540Z,4.00
2018-08-19T00:39:30.523Z,4.00
2018-08-19T00:40:30.507Z,4.00
2018-08-19T00:41:30.490Z,4.00
2018-08-19T00:42:30.475Z,4.00
2018-08-19T00:43:30.460Z,4.00
2018-08-19T00:44:30.444Z,4.00
2018-08-19T00:45:30.424Z,4.00
2018-08-19T00:46:30.408Z,4.00
2018-08-19T00:47:30.392Z,4.00
2018-08-19T00:48:30.377Z,4.00
2018-08-19T00:49:30.358Z,4.00
2018-08-19T00:50:30.341Z,4.00
2018-08-19T00:51:30.325Z,4.00
2018-08-19T00:52:30.307Z,4.00
2018-08-19T00:53:32.542Z,4.00
2018-08-19T00:54:30.273Z,4.00
2018-08-19T00:55:30.257Z,4.00
2018-08-19T00:56:30.241Z,4.00
2018-08-19T00:57:30.222Z,4.00
2018-08-19T00:58:30.207Z,4.00
2018-08-19T00:59:30.192Z,4.00
2018-08-19T01:00:30.172Z,4.00
2018-08-19T01:01:30.157Z,4.00
2018-08-19T01:02:30.141Z,4.00
2018-08-19T01:03:30.127Z,4.00
2018-08-19T01:04:30.106Z,4.00
2018-08-19T01:05:30.090Z,4.00
2018-08-19T01:06:30.073Z,4.00
2018-08-19T01:07:30.057Z,4.00
2018-08-19T01:08:30.038Z,4.00
2018-08-19T01:09:30.022Z,4.00
2018-08-19T01:10:30.005Z,4.00
2018-08-19T01:11:29.991Z,4.00
2018-08-19T01:12:29.971Z,4.00
2018-08-19T01:13:29.955Z,4.00
2018-08-19T01:14:29.938Z,4.00
2018-08-19T01:15:31.773Z,4.00
2018-08-19T01:16:29.904Z,4.00
2018-08-19T01:17:29.887Z,4.00
2018-08-19T01:18:29.871Z,4.00
2018-08-19T01:19:29.856Z,4.00
2018-08-19T01:20:29.836Z,4.00
2018-08-19T01:21:29.820Z,4.00
2018-08-19T01:22:29.804Z,4.00
2018-08-19T01:23:29.788Z,4.00
2018-08-19T01:24:29.771Z,4.00
2018-08-19T01:25:29.755Z,4.00
2018-08-19T01:26:29.738Z,4.00
2018-08-19T01:27:29.720Z,4.00
2018-08-19T01:28:29.704Z,4.00
2018-08-19T01:29:29.686Z,4.00
2018-08-19T01:30:29.672Z,4.00
2018-08-19T01:31:29.654Z,4.00
2018-08-19T01:32:29.637Z,4.00
2018-08-19T01:33:29.619Z,4.00
2018-08-19T01:34:29.603Z,4.00
2018-08-19T01:35:29.586Z,4.00
2018-08-19T01:36:29.569Z,4.00
2018-08-19T01:37:29.553Z,4.00
2018-08-19T01:38:29.535Z,4.00
2018-08-19T01:39:29.520Z,4.00
2018-08-19T01:40:29.503Z,4.00
2018-08-19T01:41:29.486Z,4.00
2018-08-19T01:42:29.469Z,4.00
2018-08-19T01:43:29.456Z,4.00
2018-08-19T01:44:29.435Z,4.00
2018-08-19T01:45:29.418Z,4.00
2018-08-19T01:46:29.402Z,4.00
2018-08-19T01:47:29.384Z,4.00
2018-08-19T01:48:29.368Z,4.00
2018-08-19T01:49:29.350Z,4.00
2018-08-19T01:50:29.335Z,4.00
2018-08-19T01:51:29.318Z,4.00
2018-08-19T01:52:29.300Z,4.00
2018-08-19T01:53:29.283Z,4.00
2018-08-19T01:54:29.267Z,4.00
2018-08-19T01:55:29.251Z,4.00
2018-08-19T01:56:29.233Z,4.00
2018-08-19T01:57:29.216Z,4.00
2018-08-19T01:58:29.200Z,4.00
2018-08-19T01:59:29.189Z,4.00
2018-08-19T02:00:29.166Z,4.00
2018-08-19T02:01:29.148Z,4.00
2018-08-19T02:02:29.132Z,4.00
2018-08-19T02:03:29.116Z,4.00
2018-08-19T02:04:29.098Z,4.00
2018-08-19T02:05:29.119Z,4.00
2018-08-19T02:06:29.065Z,4.00
2018-08-19T02:07:29.049Z,4.00
2018-08-19T02:08:29.030Z,4.00
2018-08-19T02:09:29.013Z,4.00
2018-08-19T02:10:28.998Z,4.00
2018-08-19T02:11:28.984Z,4.00
2018-08-19T02:12:28.963Z,4.00
2018-08-19T02:13:28.947Z,4.00
2018-08-19T02:14:28.931Z,4.00
2018-08-19T02:15:28.914Z,4.00
2018-08-19T02:16:28.897Z,4.00
2018-08-19T02:17:28.880Z,4.00
2018-08-19T02:18:28.866Z,4.00
2018-08-19T02:19:28.847Z,4.00
2018-08-19T02:20:28.832Z,4.00
2018-08-19T02:21:28.812Z,4.00
2018-08-19T02:22:28.796Z,4.00
2018-08-19T02:23:28.779Z,4.00
2018-08-19T02:24:28.761Z,4.00
2018-08-19T02:25:28.744Z,4.00
2018-08-19T02:26:28.729Z,4.00
2018-08-19T02:27:28.712Z,4.00
2018-08-19T02:28:28.696Z,4.00
2018-08-19T02:29:28.678Z,4.00
2018-08-19T02:30:28.662Z,4.00
2018-08-19T02:31:28.645Z,4.00
2018-08-19T02:32:28.626Z,4.00
2018-08-19T02:33:28.613Z,4.00
2018-08-19T02:34:28.595Z,4.00
2018-08-19T02:35:28.578Z,4.00
2018-08-19T02:36:28.560Z,4.00
2018-08-19T02:37:28.545Z,4.00
2018-08-19T02:38:28.526Z,4.00
2018-08-19T02:39:28.509Z,4.00
2018-08-19T02:40:28.491Z,4.00
2018-08-19T02:41:28.476Z,4.00
2018-08-19T02:42:28.459Z,4.00
2018-08-19T02:43:28.447Z,4.00
2018-08-19T02:44:28.426Z,4.00
2018-08-19T02:45:28.417Z,4.00
2018-08-19T02:46:29.143Z,4.00
2018-08-19T02:47:28.375Z,4.00
2018-08-19T02:48:28.358Z,4.00
2018-08-19T02:49:28.342Z,4.00
2018-08-19T02:50:28.324Z,4.00
2018-08-19T02:51:28.307Z,4.00
2018-08-19T02:52:28.290Z,4.00
2018-08-19T02:53:28.274Z,4.00
2018-08-19T02:54:28.256Z,4.00
2018-08-19T02:55:28.242Z,4.00
2018-08-19T02:56:28.221Z,4.00
2018-08-19T02:57:28.208Z,4.00
2018-08-19T02:58:28.188Z,4.00
2018-08-19T02:59:28.172Z,4.00
2018-08-19T03:00:28.155Z,4.00
2018-08-19T03:01:28.138Z,4.00
2018-08-19T03:02:28.122Z,4.00
2018-08-19T03:03:28.105Z,4.00
2018-08-19T03:04:28.090Z,4.00
2018-08-19T03:05:28.070Z,4.00
2018-08-19T03:06:28.053Z,4.00
2018-08-19T03:07:28.038Z,4.00
2018-08-19T03:08:28.019Z,4.00
2018-08-19T03:09:28.006Z,4.00
2018-08-19T03:10:27.986Z,4.00
2018-08-19T03:11:27.970Z,4.00
2018-08-19T03:12:27.952Z,4.00
2018-08-19T03:13:27.938Z,4.00
2018-08-19T03:14:27.919Z,4.00
2018-08-19T03:15:27.901Z,4.00
2018-08-19T03:16:27.886Z,4.00
2018-08-19T03:17:27.869Z,4.00
2018-08-19T03:18:27.851Z,4.00
2018-08-19T03:19:27.836Z,4.00
2018-08-19T03:20:27.817Z,4.00
2018-08-19T03:21:27.802Z,4.00
2018-08-19T03:22:28.536Z,4.00
2018-08-19T03:23:27.769Z,4.00
2018-08-19T03:24:27.750Z,4.00
2018-08-19T03:25:27.733Z,4.00
2018-08-19T03:26:27.717Z,4.00
2018-08-19T03:27:27.700Z,4.00
2018-08-19T03:28:27.683Z,4.00
2018-08-19T03:29:27.667Z,4.00
2018-08-19T03:30:27.650Z,4.00
2018-08-19T03:31:27.635Z,4.00
2018-08-19T03:32:27.616Z,4.00
2018-08-19T03:33:27.600Z,4.00
2018-08-19T03:34:27.582Z,4.00
2018-08-19T03:35:27.566Z,4.00
2018-08-19T03:36:27.547Z,4.00
2018-08-19T03:37:27.531Z,4.00
2018-08-19T03:38:28.266Z,4.00
2018-08-19T03:39:27.500Z,4.00
2018-08-19T03:40:27.483Z,4.00
2018-08-19T03:41:27.464Z,4.00
2018-08-19T03:42:27.454Z,4.00
2018-08-19T03:43:27.434Z,4.00
2018-08-19T03:44:27.414Z,0.00
2018-08-19T03:45:27.397Z,0.00
2018-08-19T03:46:27.380Z,0.00
2018-08-19T03:47:27.364Z,0.00
2018-08-19T03:48:27.345Z,0.00
2018-08-19T03:49:27.329Z,0.00
2018-08-19T03:50:27.311Z,0.00
2018-08-19T03:51:27.295Z,0.00
2018-08-19T03:52:27.278Z,0.00
2018-08-19T03:53:27.260Z,4.00
2018-08-19T03:54:27.245Z,4.00
2018-08-19T03:55:27.228Z,4.00
2018-08-19T03:56:27.217Z,4.00
2018-08-19T03:57:27.193Z,4.00
2018-08-19T03:58:27.234Z,0.00
2018-08-19T03:59:27.163Z,4.00
2018-08-19T04:00:27.143Z,4.00
2018-08-19T04:01:27.125Z,8.00
2018-08-19T04:02:27.109Z,4.00
2018-08-19T04:03:27.092Z,4.00
2018-08-19T04:04:27.074Z,8.00
2018-08-19T04:05:27.058Z,8.00
2018-08-19T04:06:27.044Z,8.00
2018-08-19T04:07:27.026Z,12.00
2018-08-19T04:08:27.008Z,12.00
2018-08-19T04:09:27.741Z,16.00
2018-08-19T04:10:26.974Z,16.00
2018-08-19T04:11:26.957Z,20.00
2018-08-19T04:12:26.944Z,24.00
2018-08-19T04:13:26.929Z,24.00
2018-08-19T04:14:26.907Z,32.00
2018-08-19T04:15:26.890Z,36.00
2018-08-19T04:16:26.873Z,44.00
2018-08-19T04:17:26.856Z,44.00
2018-08-19T04:18:26.839Z,52.00
2018-08-19T04:19:26.823Z,60.00
2018-08-19T04:20:26.806Z,68.00
2018-08-19T04:21:26.789Z,76.00
2018-08-19T04:22:26.772Z,84.00
2018-08-19T04:23:26.759Z,92.00
2018-08-19T04:24:26.738Z,104.00
2018-08-19T04:25:26.720Z,116.00
2018-08-19T04:26:26.703Z,128.00
2018-08-19T04:27:26.688Z,144.00
2018-08-19T04:28:26.671Z,160.00
2018-08-19T04:29:26.654Z,172.00
2018-08-19T04:30:26.637Z,192.00
2018-08-19T04:31:26.619Z,204.00
2018-08-19T04:32:26.602Z,224.00
2018-08-19T04:33:26.586Z,244.00
2018-08-19T04:34:26.572Z,260.00
2018-08-19T04:35:26.554Z,280.00
2018-08-19T04:36:26.536Z,300.00
2018-08-19T04:37:26.523Z,324.00
2018-08-19T04:38:26.502Z,348.00
2018-08-19T04:39:26.487Z,368.00
2018-08-19T04:40:26.467Z,388.00
2018-08-19T04:41:26.450Z,412.00
2018-08-19T04:42:26.482Z,440.00
2018-08-19T04:43:26.416Z,464.00
2018-08-19T04:44:26.398Z,488.00
2018-08-19T04:45:26.386Z,512.00
2018-08-19T04:46:26.364Z,540.00
2018-08-19T04:47:27.101Z,564.00
2018-08-19T04:48:26.331Z,592.00
2018-08-19T04:49:26.317Z,616.00
2018-08-19T04:50:26.297Z,644.00
2018-08-19T04:51:26.280Z,668.00
2018-08-19T04:52:26.261Z,696.00
2018-08-19T04:53:26.246Z,720.00
2018-08-19T04:54:26.228Z,752.00
2018-08-19T04:55:26.215Z,780.00
2018-08-19T04:56:26.193Z,808.00
2018-08-19T04:57:26.180Z,840.00
2018-08-19T04:58:26.163Z,872.00
2018-08-19T04:59:26.144Z,896.00
2018-08-19T05:00:26.125Z,928.00
2018-08-19T05:01:26.109Z,960.00
2018-08-19T05:02:26.123Z,984.00
2018-08-19T05:03:26.075Z,1016.00
2018-08-19T05:04:26.058Z,1048.00
2018-08-19T05:05:26.040Z,1076.00
2018-08-19T05:06:26.024Z,1108.00
2018-08-19T05:07:26.006Z,1140.00
2018-08-19T05:08:26.206Z,1172.00
2018-08-19T05:09:25.972Z,1204.00
2018-08-19T05:10:25.956Z,1232.00
2018-08-19T05:11:25.938Z,1268.00
2018-08-19T05:12:25.921Z,1300.00
2018-08-19T05:13:25.904Z,1332.00
2018-08-19T05:14:25.887Z,1364.00
2018-08-19T05:15:25.927Z,1396.00
2018-08-19T05:16:25.857Z,1424.00
2018-08-19T05:17:25.850Z,1460.00
2018-08-19T05:18:25.821Z,1488.00
2018-08-19T05:19:25.801Z,1512.00
2018-08-19T05:20:25.784Z,1540.00
2018-08-19T05:21:25.767Z,1568.00
2018-08-19T05:22:25.784Z,1592.00
2018-08-19T05:23:25.734Z,1628.00
2018-08-19T05:24:26.466Z,1664.00
2018-08-19T05:25:25.700Z,1712.00
2018-08-19T05:26:25.683Z,1760.00
2018-08-19T05:27:25.666Z,1804.00
2018-08-19T05:28:25.671Z,1852.00
2018-08-19T05:29:25.636Z,1896.00
2018-08-19T05:30:25.615Z,1940.00
2018-08-19T05:31:25.604Z,1968.00
2018-08-19T05:32:25.579Z,1980.00
2018-08-19T05:33:25.563Z,2008.00
2018-08-19T05:34:25.547Z,2044.00
2018-08-19T05:35:25.529Z,2064.00
2018-08-19T05:36:25.515Z,2088.00
2018-08-19T05:37:25.497Z,2084.00
2018-08-19T05:38:25.479Z,2088.00
2018-08-19T05:39:25.461Z,2096.00
2018-08-19T05:40:25.445Z,2112.00
2018-08-19T05:41:25.427Z,2124.00
2018-08-19T05:42:25.411Z,2144.00
2018-08-19T05:43:25.395Z,2164.00
2018-08-19T05:44:25.377Z,2188.00
2018-08-19T05:45:25.361Z,2204.00
2018-08-19T05:46:25.345Z,2228.00
2018-08-19T05:47:25.329Z,2256.00
2018-08-19T05:48:25.312Z,2272.00
2018-08-19T05:49:25.294Z,2312.00
2018-08-19T05:50:25.278Z,2348.00
2018-08-19T05:51:25.261Z,2380.00
2018-08-19T05:52:25.246Z,2416.00
2018-08-19T05:53:25.227Z,2444.00
2018-08-19T05:54:25.242Z,2460.00
2018-08-19T05:55:25.238Z,2460.00
2018-08-19T05:56:25.175Z,2472.00
2018-08-19T05:57:25.161Z,2488.00
2018-08-19T05:58:25.142Z,2516.00
2018-08-19T05:59:25.127Z,2536.00
2018-08-19T06:00:25.109Z,2560.00
2018-08-19T06:01:25.092Z,2584.00
2018-08-19T06:02:25.075Z,2600.00
2018-08-19T06:03:25.060Z,2620.00
2018-08-19T06:04:25.044Z,2632.00
2018-08-19T06:05:25.025Z,2656.00
2018-08-19T06:06:25.010Z,2672.00
2018-08-19T06:07:25.027Z,2696.00
2018-08-19T06:08:24.975Z,2712.00
2018-08-19T06:09:24.962Z,2748.00
2018-08-19T06:10:24.942Z,2764.00
2018-08-19T06:11:24.927Z,2800.00
2018-08-19T06:12:24.959Z,2828.00
2018-08-19T06:13:24.891Z,2852.00
2018-08-19T06:14:24.875Z,2860.00
2018-08-19T06:15:24.861Z,2880.00
2018-08-19T06:16:24.843Z,2888.00
2018-08-19T06:17:24.828Z,2896.00
2018-08-19T06:18:24.809Z,2904.00
2018-08-19T06:19:24.792Z,2912.00
2018-08-19T06:20:24.775Z,2916.00
2018-08-19T06:21:24.759Z,2932.00
2018-08-19T06:22:24.744Z,2944.00
2018-08-19T06:23:24.727Z,2956.00
2018-08-19T06:24:24.710Z,2944.00
2018-08-19T06:25:24.693Z,2952.00
2018-08-19T06:26:24.677Z,2964.00
2018-08-19T06:27:24.661Z,3004.00
2018-08-19T06:28:24.643Z,2992.00
2018-08-19T06:29:24.627Z,3020.00
2018-08-19T06:30:24.610Z,3040.00
2018-08-19T06:31:24.595Z,3048.00
2018-08-19T06:32:24.577Z,3064.00
2018-08-19T06:33:24.562Z,3064.00
2018-08-19T06:34:24.569Z,3072.00
2018-08-19T06:35:24.531Z,3080.00
2018-08-19T06:36:24.544Z,3128.00
2018-08-19T06:37:24.497Z,3148.00
2018-08-19T06:38:24.483Z,3176.00
2018-08-19T06:39:24.464Z,3192.00
2018-08-19T06:40:24.446Z,3216.00
2018-08-19T06:41:24.431Z,3232.00
2018-08-19T06:42:24.415Z,3240.00
2018-08-19T06:43:24.399Z,3260.00
2018-08-19T06:44:24.381Z,3292.00
2018-08-19T06:45:24.366Z,3312.00
2018-08-19T06:46:24.349Z,3336.00
2018-08-19T06:47:24.332Z,3348.00
2018-08-19T06:48:25.067Z,3352.00
2018-08-19T06:49:24.300Z,3372.00
2018-08-19T06:50:24.283Z,3384.00
2018-08-19T06:51:24.269Z,3392.00
2018-08-19T06:52:24.251Z,3384.00
2018-08-19T06:53:24.235Z,3416.00
2018-08-19T06:54:24.220Z,3416.00
2018-08-19T06:55:24.209Z,3440.00
2018-08-19T06:56:24.186Z,3436.00
2018-08-19T06:57:24.172Z,3456.00
2018-08-19T06:58:24.156Z,3464.00
2018-08-19T06:59:24.140Z,3464.00
2018-08-19T07:00:24.127Z,3476.00
2018-08-19T07:01:24.108Z,3492.00
2018-08-19T07:02:24.092Z,3500.00
2018-08-19T07:03:24.126Z,3512.00
2018-08-19T07:04:24.059Z,3520.00
2018-08-19T07:05:24.044Z,3520.00
2018-08-19T07:06:24.028Z,3520.00
2018-08-19T07:07:24.012Z,3532.00
2018-08-19T07:08:23.996Z,3544.00
2018-08-19T07:09:23.979Z,3564.00
2018-08-19T07:10:23.964Z,3580.00
2018-08-19T07:11:23.948Z,3588.00
2018-08-19T07:12:23.931Z,3680.00
2018-08-19T07:13:23.916Z,3612.00
2018-08-19T07:14:24.650Z,3620.00
2018-08-19T07:15:23.925Z,3620.00
2018-08-19T07:16:23.868Z,3624.00
2018-08-19T07:17:23.852Z,3624.00
2018-08-19T07:18:23.838Z,3620.00
2018-08-19T07:19:23.822Z,3628.00
2018-08-19T07:20:23.804Z,3620.00
2018-08-19T07:21:23.789Z,3628.00
2018-08-19T07:22:23.773Z,3636.00
2018-08-19T07:23:23.757Z,3648.00
2018-08-19T07:24:23.741Z,3656.00
2018-08-19T07:25:23.727Z,3664.00
2018-08-19T07:26:23.711Z,3664.00
2018-08-19T07:27:23.696Z,3668.00
2018-08-19T07:28:23.681Z,3668.00
2018-08-19T07:29:23.665Z,3688.00
2018-08-19T07:30:23.648Z,3684.00
2018-08-19T07:31:23.634Z,3676.00
2018-08-19T07:32:23.617Z,3676.00
2018-08-19T07:33:23.602Z,3676.00
2018-08-19T07:34:23.587Z,3720.00
2018-08-19T07:35:24.322Z,3700.00
2018-08-19T07:36:23.556Z,3708.00
2018-08-19T07:37:23.542Z,3696.00
2018-08-19T07:38:23.525Z,3716.00
2018-08-19T07:39:23.510Z,3712.00
2018-08-19T07:40:23.493Z,3728.00
2018-08-19T07:41:23.477Z,3732.00
2018-08-19T07:42:23.463Z,3768.00
2018-08-19T07:43:23.447Z,3740.00
2018-08-19T07:44:23.432Z,3748.00
2018-08-19T07:45:23.415Z,3764.00
2018-08-19T07:46:23.407Z,3848.00
2018-08-19T07:47:23.385Z,3780.00
2018-08-19T07:48:23.371Z,3776.00
2018-08-19T07:49:23.355Z,3788.00
2018-08-19T07:50:23.340Z,3792.00
2018-08-19T07:51:23.325Z,3824.00
2018-08-19T07:52:23.310Z,3796.00
2018-08-19T07:53:23.294Z,3800.00
2018-08-19T07:54:23.279Z,3804.00
2018-08-19T07:55:23.264Z,3820.00
2018-08-19T07:56:23.249Z,3832.00
2018-08-19T07:57:23.232Z,3848.00
2018-08-19T07:58:23.218Z,3836.00
2018-08-19T07:59:23.202Z,3840.00
2018-08-19T08:00:23.187Z,3840.00
2018-08-19T08:01:23.226Z,3864.00
2018-08-19T08:02:23.156Z,3840.00
2018-08-19T08:03:23.142Z,3852.00
2018-08-19T08:04:23.124Z,3968.00
2018-08-19T08:05:23.111Z,3864.00
2018-08-19T08:06:23.094Z,3904.00
2018-08-19T08:07:23.083Z,3884.00
2018-08-19T08:08:23.064Z,3880.00
2018-08-19T08:09:23.050Z,3904.00
2018-08-19T08:10:23.035Z,3884.00
2018-08-19T08:11:23.021Z,3900.00
2018-08-19T08:12:23.004Z,3904.00
2018-08-19T08:13:22.990Z,3924.00
2018-08-19T08:14:23.018Z,3912.00
2018-08-19T08:15:22.961Z,3920.00
2018-08-19T08:16:22.945Z,3920.00
2018-08-19T08:17:22.929Z,3920.00
2018-08-19T08:18:22.915Z,3932.00
2018-08-19T08:19:22.900Z,3940.00
2018-08-19T08:20:22.883Z,3916.00
2018-08-19T08:21:22.902Z,3932.00
2018-08-19T08:22:22.855Z,3972.00
2018-08-19T08:23:22.839Z,3956.00
2018-08-19T08:24:22.825Z,3960.00
2018-08-19T08:25:22.809Z,3948.00
2018-08-19T08:26:22.795Z,3960.00
2018-08-19T08:27:22.779Z,3952.00
2018-08-19T08:28:22.765Z,3940.00
2018-08-19T08:29:22.750Z,3956.00
2018-08-19T08:30:22.735Z,3972.00
2018-08-19T08:31:22.722Z,3964.00
2018-08-19T08:32:22.705Z,4000.00
2018-08-19T08:33:22.704Z,3972.00
2018-08-19T08:34:22.762Z,4004.00
2018-08-19T08:35:22.661Z,4016.00
2018-08-19T08:36:22.663Z,3972.00
2018-08-19T08:37:22.630Z,3964.00
2018-08-19T08:38:22.616Z,3968.00
2018-08-19T08:39:22.601Z,3972.00
2018-08-19T08:40:22.586Z,3960.00
2018-08-19T08:41:22.571Z,3972.00
2018-08-19T08:42:22.557Z,3976.00
2018-08-19T08:43:22.541Z,3984.00
2018-08-19T08:44:22.528Z,3992.00
2018-08-19T08:45:22.515Z,4004.00
2018-08-19T08:46:22.499Z,4000.00
2018-08-19T08:47:22.528Z,4012.00
2018-08-19T08:48:22.468Z,4008.00
2018-08-19T08:49:22.453Z,4032.00
2018-08-19T08:50:23.190Z,3996.00
2018-08-19T08:51:22.424Z,3996.00
2018-08-19T08:52:22.412Z,4016.00
2018-08-19T08:53:22.410Z,4028.00
2018-08-19T08:54:22.381Z,4036.00
2018-08-19T08:55:22.366Z,4052.00
2018-08-19T08:56:22.409Z,4052.00
2018-08-19T08:57:22.336Z,4044.00
2018-08-19T08:58:22.322Z,4044.00
2018-08-19T08:59:22.308Z,4036.00
2018-08-19T09:00:22.292Z,4044.00
2018-08-19T09:01:22.279Z,4048.00
2018-08-19T09:02:22.263Z,4052.00
2018-08-19T09:03:22.326Z,4044.00
2018-08-19T09:04:22.234Z,4056.00
2018-08-19T09:05:22.219Z,4060.00
2018-08-19T09:06:22.207Z,4060.00
2018-08-19T09:07:22.192Z,4072.00
2018-08-19T09:08:22.176Z,4108.00
2018-08-19T09:09:22.163Z,4080.00
2018-08-19T09:10:22.148Z,4084.00
2018-08-19T09:11:22.135Z,4100.00
2018-08-19T09:12:22.119Z,4108.00
2018-08-19T09:13:22.106Z,4116.00
2018-08-19T09:14:22.092Z,4112.00
2018-08-19T09:15:22.077Z,4168.00
2018-08-19T09:16:22.061Z,4132.00
2018-08-19T09:17:22.047Z,4120.00
2018-08-19T09:18:22.033Z,4144.00
2018-08-19T09:19:22.097Z,4132.00
2018-08-19T09:20:22.008Z,4148.00
2018-08-19T09:21:21.996Z,4148.00
2018-08-19T09:22:21.976Z,4148.00
2018-08-19T09:23:22.111Z,4144.00
2018-08-19T09:24:21.948Z,4148.00
2018-08-19T09:25:21.932Z,4148.00
2018-08-19T09:26:21.920Z,4156.00
2018-08-19T09:27:21.905Z,4164.00
2018-08-19T09:28:21.897Z,4160.00
2018-08-19T09:29:21.880Z,4176.00
2018-08-19T09:30:21.863Z,4176.00
2018-08-19T09:31:21.849Z,4176.00
2018-08-19T09:32:21.833Z,4180.00
2018-08-19T09:33:21.820Z,4184.00
2018-08-19T09:34:21.807Z,4172.00
2018-08-19T09:35:21.792Z,4200.00
2018-08-19T09:36:21.778Z,4196.00
2018-08-19T09:37:21.763Z,4208.00
2018-08-19T09:38:21.752Z,4216.00
2018-08-19T09:39:21.735Z,4228.00
2018-08-19T09:40:21.721Z,4240.00
2018-08-19T09:41:21.707Z,4216.00
2018-08-19T09:42:21.708Z,4220.00
2018-08-19T09:43:21.680Z,4224.00
2018-08-19T09:44:21.664Z,4212.00
2018-08-19T09:45:21.650Z,4220.00
2018-08-19T09:46:21.637Z,4224.00
2018-08-19T09:47:21.623Z,4236.00
2018-08-19T09:48:21.608Z,4232.00
2018-08-19T09:49:21.594Z,4240.00
2018-08-19T09:50:21.581Z,4228.00
2018-08-19T09:51:21.569Z,4244.00
2018-08-19T09:52:21.553Z,4236.00
2018-08-19T09:53:21.539Z,4240.00
2018-08-19T09:54:21.526Z,4256.00
2018-08-19T09:55:21.512Z,4252.00
2018-08-19T09:56:21.500Z,4240.00
2018-08-19T09:57:21.489Z,4248.00
2018-08-19T09:58:21.471Z,4232.00
2018-08-19T09:59:21.458Z,4248.00
2018-08-19T10:00:21.444Z,4248.00
2018-08-19T10:01:21.464Z,4256.00
2018-08-19T10:02:21.417Z,4260.00
2018-08-19T10:03:21.403Z,4260.00
2018-08-19T10:04:21.393Z,4272.00
2018-08-19T10:05:21.377Z,4264.00
2018-08-19T10:06:21.361Z,4276.00
2018-08-19T10:07:21.371Z,4280.00
2018-08-19T10:08:21.334Z,4280.00
2018-08-19T10:09:21.321Z,4284.00
2018-08-19T10:10:21.308Z,4300.00
2018-08-19T10:11:21.294Z,4308.00
2018-08-19T10:12:21.330Z,4324.00
2018-08-19T10:13:21.310Z,4336.00
2018-08-19T10:14:21.255Z,4328.00
2018-08-19T10:15:21.241Z,4336.00
2018-08-19T10:16:21.227Z,4320.00
2018-08-19T10:17:21.213Z,4360.00
2018-08-19T10:18:21.199Z,4360.00
2018-08-19T10:19:21.188Z,4360.00
2018-08-19T10:20:21.175Z,4344.00
2018-08-19T10:21:21.161Z,4360.00
2018-08-19T10:22:21.148Z,4372.00
2018-08-19T10:23:21.135Z,4368.00
2018-08-19T10:24:21.120Z,4364.00
2018-08-19T10:25:21.108Z,4368.00
2018-08-19T10:26:21.095Z,4296.00
2018-08-19T10:27:21.081Z,4340.00
2018-08-19T10:28:21.066Z,4368.00
2018-08-19T10:29:21.055Z,4448.00
2018-08-19T10:30:21.041Z,4436.00
2018-08-19T10:31:21.091Z,4392.00
2018-08-19T10:32:21.014Z,4388.00
2018-08-19T10:33:21.002Z,4408.00
2018-08-19T10:34:20.989Z,4404.00
2018-08-19T10:35:20.975Z,4408.00
2018-08-19T10:36:20.962Z,4424.00
2018-08-19T10:37:20.949Z,4392.00
2018-08-19T10:38:20.936Z,4384.00
2018-08-19T10:39:20.924Z,4408.00
2018-08-19T10:40:20.909Z,4420.00
2018-08-19T10:41:20.896Z,4440.00
2018-08-19T10:42:20.885Z,4444.00
2018-08-19T10:43:20.869Z,4452.00
2018-08-19T10:44:20.864Z,4472.00
2018-08-19T10:45:20.842Z,4476.00
2018-08-19T10:46:20.903Z,4540.00
2018-08-19T10:47:20.817Z,4624.00
2018-08-19T10:48:20.803Z,4616.00
2018-08-19T10:49:20.791Z,4588.00
2018-08-19T10:50:20.779Z,4552.00
2018-08-19T10:51:20.764Z,4528.00
2018-08-19T10:52:20.751Z,4528.00
2018-08-19T10:53:20.792Z,4592.00
2018-08-19T10:54:20.726Z,4524.00
2018-08-19T10:55:20.714Z,4508.00
2018-08-19T10:56:20.698Z,4512.00
2018-08-19T10:57:20.686Z,4488.00
2018-08-19T10:58:20.693Z,4484.00
2018-08-19T10:59:20.662Z,4448.00
2018-08-19T11:00:20.646Z,4444.00
2018-08-19T11:01:20.633Z,4472.00
2018-08-19T11:02:20.621Z,4584.00
2018-08-19T11:03:20.609Z,4488.00
2018-08-19T11:04:20.596Z,4476.00
2018-08-19T11:05:20.582Z,4488.00
2018-08-19T11:06:20.570Z,4548.00
2018-08-19T11:07:20.557Z,4552.00
2018-08-19T11:08:20.544Z,4540.00
2018-08-19T11:09:20.533Z,4516.00
2018-08-19T11:10:20.521Z,4532.00
2018-08-19T11:11:20.506Z,4488.00
2018-08-19T11:12:20.493Z,4400.00
2018-08-19T11:13:20.539Z,4468.00
2018-08-19T11:14:20.468Z,4500.00
2018-08-19T11:15:21.209Z,4544.00
2018-08-19T11:16:20.441Z,4520.00
2018-08-19T11:17:20.428Z,4568.00
2018-08-19T11:18:20.415Z,4544.00
2018-08-19T11:19:20.403Z,4500.00
2018-08-19T11:20:20.390Z,4544.00
2018-08-19T11:21:20.377Z,4576.00
2018-08-19T11:22:20.365Z,4600.00
2018-08-19T11:23:20.351Z,4624.00
2018-08-19T11:24:20.338Z,4588.00
2018-08-19T11:25:20.326Z,4604.00
2018-08-19T11:26:20.312Z,4628.00
2018-08-19T11:27:20.301Z,4544.00
2018-08-19T11:28:20.288Z,4452.00
2018-08-19T11:29:20.275Z,4512.00
2018-08-19T11:30:20.262Z,4536.00
2018-08-19T11:31:20.291Z,4520.00
2018-08-19T11:32:20.238Z,4492.00
2018-08-19T11:33:20.223Z,4484.00
2018-08-19T11:34:20.210Z,4576.00
2018-08-19T11:35:20.199Z,4640.00
2018-08-19T11:36:20.936Z,4652.00
2018-08-19T11:37:20.172Z,4704.00
2018-08-19T11:38:20.160Z,4788.00
2018-08-19T11:39:20.147Z,4980.00
2018-08-19T11:40:20.134Z,5436.00
2018-08-19T11:41:20.122Z,5536.00
2018-08-19T11:42:20.109Z,5276.00
2018-08-19T11:43:20.106Z,4984.00
2018-08-19T11:44:20.084Z,4876.00
2018-08-19T11:45:20.071Z,4776.00
2018-08-19T11:46:20.059Z,4748.00
2018-08-19T11:47:20.047Z,4724.00
2018-08-19T11:48:20.032Z,4648.00
2018-08-19T11:49:20.022Z,4640.00
2018-08-19T11:50:20.008Z,4648.00
2018-08-19T11:51:19.996Z,4700.00
2018-08-19T11:52:19.983Z,4688.00
2018-08-19T11:53:19.972Z,4776.00
2018-08-19T11:54:19.963Z,4808.00
2018-08-19T11:55:19.972Z,4860.00
2018-08-19T11:56:19.935Z,4932.00
2018-08-19T11:57:19.922Z,5008.00
2018-08-19T11:58:19.916Z,5080.00
2018-08-19T11:59:19.898Z,5152.00
2018-08-19T12:00:19.886Z,5232.00
2018-08-19T12:01:19.874Z,5296.00
2018-08-19T12:02:19.862Z,5216.00
2018-08-19T12:03:19.849Z,5364.00
2018-08-19T12:04:19.837Z,5200.00
2018-08-19T12:05:19.825Z,5248.00
2018-08-19T12:06:19.814Z,5332.00
2018-08-19T12:07:19.802Z,5440.00
2018-08-19T12:08:19.789Z,5612.00
2018-08-19T12:09:19.776Z,5840.00
2018-08-19T12:10:19.766Z,6060.00
2018-08-19T12:11:19.752Z,6164.00
2018-08-19T12:12:19.742Z,6264.00
2018-08-19T12:13:19.729Z,6536.00
2018-08-19T12:14:19.717Z,6792.00
2018-08-19T12:15:19.704Z,7020.00
2018-08-19T12:16:19.693Z,7080.00
2018-08-19T12:17:19.684Z,7112.00
2018-08-19T12:18:19.670Z,7128.00
2018-08-19T12:19:19.659Z,7380.00
2018-08-19T12:20:19.646Z,7704.00
2018-08-19T12:21:19.633Z,7824.00
2018-08-19T12:22:19.626Z,7988.00
2018-08-19T12:23:19.612Z,7664.00
2018-08-19T12:24:19.599Z,7300.00
2018-08-19T12:25:19.588Z,6960.00
2018-08-19T12:26:19.576Z,7040.00
2018-08-19T12:27:19.665Z,7376.00
2018-08-19T12:28:21.805Z,7676.00
2018-08-19T12:29:19.541Z,8360.00
2018-08-19T12:30:19.532Z,8380.00